Time;durP1;ratioP1;P1;durP2;ratioP2;P2;SDS_P1;SDS_P2;PMS_P1;PMS_P2;Temp;Humidity;BMP_temperature;BMP_pressure;BME280_temperature;BME280_humidity;BME280_pressure;Samples;Min_cycle;Max_cycle;Signal;HPM_P1;HPM_P2
2022/07/17 00:00:10;;;;;;;2.30;2.00;;;12.00;99.90;;;;;;4923433;28;90473;-31
2022/07/17 00:02:35;;;;;;;7.07;2.08;;;11.90;99.90;;;;;;4922200;28;90250;-31
2022/07/17 00:05:01;;;;;;;3.67;2.00;;;11.90;99.90;;;;;;4923063;28;89502;-33
2022/07/17 00:07:26;;;;;;;4.82;2.15;;;11.90;99.90;;;;;;4962613;23;89434;-32
2022/07/17 00:09:53;;;;;;;5.15;2.85;;;12.00;99.90;;;;;;4961170;28;89477;-32
2022/07/17 00:12:19;;;;;;;5.30;2.20;;;11.90;99.90;;;;;;4960387;28;90156;-30
2022/07/17 00:14:44;;;;;;;3.88;2.22;;;11.90;99.90;;;;;;4961681;28;89961;-31
2022/07/17 00:17:10;;;;;;;2.33;1.83;;;11.90;99.90;;;;;;4961886;28;89642;-31
2022/07/17 00:19:36;;;;;;;4.28;2.50;;;11.90;99.90;;;;;;4962111;28;88434;-31
2022/07/17 00:22:01;;;;;;;4.53;1.65;;;11.80;99.90;;;;;;4961930;28;90345;-32
2022/07/17 00:24:27;;;;;;;2.42;2.22;;;11.80;99.90;;;;;;4961850;28;90847;-32
2022/07/17 00:26:53;;;;;;;2.65;1.80;;;11.80;99.90;;;;;;4961325;28;90325;-34
2022/07/17 00:29:19;;;;;;;2.25;2.05;;;11.80;99.90;;;;;;4962037;28;89006;-29
2022/07/17 00:31:44;;;;;;;4.05;3.17;;;11.80;99.90;;;;;;4961801;28;89875;-33
2022/07/17 00:34:11;;;;;;;2.75;2.05;;;11.70;99.90;;;;;;4961760;28;89657;-34
2022/07/17 00:36:36;;;;;;;1.95;1.85;;;11.70;99.90;;;;;;4961939;28;89553;-31
2022/07/17 00:39:03;;;;;;;3.35;2.17;;;11.70;99.90;;;;;;4961584;28;88510;-34
2022/07/17 00:41:29;;;;;;;4.38;2.35;;;11.70;99.90;;;;;;4961696;28;90057;-32
2022/07/17 00:44:02;;;;;;;7.70;3.00;;;11.70;99.90;;;;;;4962026;28;90825;-30
2022/07/17 00:46:28;;;;;;;6.10;2.40;;;11.60;99.90;;;;;;4959791;28;89479;-30
2022/07/17 00:48:53;;;;;;;5.93;2.78;;;11.70;99.90;;;;;;4960986;28;89915;-31
2022/07/17 00:51:19;;;;;;;5.80;2.22;;;11.60;99.90;;;;;;4960812;28;90160;-32
2022/07/17 00:53:45;;;;;;;5.05;2.08;;;11.60;99.90;;;;;;4961387;28;89662;-30
2022/07/17 00:56:12;;;;;;;3.90;2.42;;;11.60;99.90;;;;;;4960691;28;89532;-30
2022/07/17 00:58:39;;;;;;;7.63;2.67;;;11.60;99.90;;;;;;4961839;28;89469;-31
2022/07/17 01:01:08;;;;;;;5.90;2.97;;;11.60;99.90;;;;;;4961826;28;91298;-33
2022/07/17 01:03:34;;;;;;;8.50;2.80;;;11.60;99.90;;;;;;4961578;28;89825;-30
2022/07/17 01:06:00;;;;;;;3.75;2.53;;;11.60;99.90;;;;;;4961207;28;89290;-31
2022/07/17 01:08:26;;;;;;;3.20;2.40;;;11.50;99.90;;;;;;4960825;28;87590;-30
2022/07/17 01:10:51;;;;;;;2.15;1.83;;;11.50;99.90;;;;;;4961450;28;90344;-33
2022/07/17 01:13:18;;;;;;;4.90;2.60;;;11.40;99.90;;;;;;4959797;28;90642;-34
2022/07/17 01:15:44;;;;;;;3.65;2.85;;;11.30;99.90;;;;;;4961216;28;91161;-31
2022/07/17 01:18:13;;;;;;;3.72;2.17;;;11.20;99.90;;;;;;4960743;28;89359;-29
2022/07/17 01:20:41;;;;;;;2.35;2.00;;;11.20;99.90;;;;;;4961183;28;90705;-31
2022/07/17 01:23:07;;;;;;;4.40;2.22;;;11.20;99.90;;;;;;4960806;28;89734;-31
2022/07/17 01:25:34;;;;;;;3.83;2.05;;;11.20;99.90;;;;;;4961171;28;89462;-31
2022/07/17 01:28:00;;;;;;;3.70;2.65;;;11.10;99.90;;;;;;4960405;28;88600;-33
2022/07/17 01:30:26;;;;;;;3.42;2.08;;;11.10;99.90;;;;;;4960788;28;89020;-33
2022/07/17 01:32:52;;;;;;;8.38;3.60;;;11.10;99.90;;;;;;4961133;28;89827;-32
2022/07/17 01:35:18;;;;;;;8.65;3.20;;;11.00;99.90;;;;;;4960352;28;88707;-30
2022/07/17 01:37:44;;;;;;;6.45;2.63;;;11.00;99.90;;;;;;4960457;28;89659;-30
2022/07/17 01:40:12;;;;;;;7.22;2.67;;;10.90;99.90;;;;;;4960651;28;90335;-31
2022/07/17 01:42:39;;;;;;;;;;;10.90;99.90;;;;;;4960725;28;89815;-33
2022/07/17 01:45:05;;;;;;;5.70;2.63;;;10.80;99.90;;;;;;4961114;28;89111;-31
2022/07/17 01:47:31;;;;;;;4.28;3.30;;;10.80;99.90;;;;;;4961019;28;88865;-32
2022/07/17 01:49:58;;;;;;;4.30;3.03;;;10.80;99.90;;;;;;4960405;28;90165;-33
2022/07/17 01:52:24;;;;;;;5.82;2.58;;;10.70;99.90;;;;;;4960413;28;90445;-33
2022/07/17 01:54:51;;;;;;;3.53;2.53;;;10.70;99.90;;;;;;4961231;28;89593;-32
2022/07/17 01:57:17;;;;;;;5.22;2.30;;;10.70;99.90;;;;;;4960421;28;89532;-30
2022/07/17 01:59:42;;;;;;;3.85;2.83;;;10.60;99.90;;;;;;4960812;28;90371;-34
2022/07/17 02:02:09;;;;;;;6.05;3.03;;;10.70;99.90;;;;;;4959773;28;91505;-32
2022/07/17 02:04:35;;;;;;;5.13;2.30;;;10.70;99.90;;;;;;4960120;28;91893;-31
2022/07/17 02:07:01;;;;;;;10.25;2.50;;;10.70;99.90;;;;;;4960550;28;87646;-31
2022/07/17 02:09:27;;;;;;;3.60;2.70;;;10.60;99.90;;;;;;4959777;28;89823;-30
2022/07/17 02:11:53;;;;;;;7.65;2.70;;;10.60;99.90;;;;;;4960399;28;89691;-34
2022/07/17 02:14:19;;;;;;;4.35;2.72;;;10.60;99.90;;;;;;4960969;28;89963;-29
2022/07/17 02:16:44;;;;;;;3.45;2.45;;;10.60;99.90;;;;;;4960387;28;88868;-30
2022/07/17 02:19:11;;;;;;;2.75;2.40;;;10.60;99.90;;;;;;4960550;28;90243;-31
2022/07/17 02:21:37;;;;;;;2.78;2.42;;;10.60;99.90;;;;;;4959588;28;89706;-31
2022/07/17 02:24:02;;;;;;;6.55;2.60;;;10.60;99.90;;;;;;4959628;28;89776;-34
2022/07/17 02:26:28;;;;;;;6.63;2.97;;;10.60;99.90;;;;;;4960416;28;90658;-33
2022/07/17 02:28:54;;;;;;;8.07;3.45;;;10.60;99.90;;;;;;4960080;28;90442;-31
2022/07/17 02:31:20;;;;;;;6.07;2.60;;;10.60;99.90;;;;;;4959793;28;90214;-31
2022/07/17 02:33:46;;;;;;;5.35;3.35;;;10.60;99.90;;;;;;4959820;28;89643;-32
2022/07/17 02:36:11;;;;;;;3.67;2.40;;;10.60;99.90;;;;;;4959782;28;89070;-35
2022/07/17 02:38:37;;;;;;;7.50;2.78;;;10.60;99.90;;;;;;4960209;28;90788;-31
2022/07/17 02:41:03;;;;;;;3.72;2.90;;;10.60;99.90;;;;;;4959539;28;89711;-30
2022/07/17 02:43:28;;;;;;;5.20;3.10;;;10.50;99.90;;;;;;4960315;28;89670;-31
2022/07/17 02:45:54;;;;;;;4.43;2.90;;;10.50;99.90;;;;;;4959776;28;89347;-30
2022/07/17 02:48:19;;;;;;;2.65;2.42;;;10.50;99.90;;;;;;4959315;28;90343;-33
2022/07/17 02:50:45;;;;;;;3.80;2.88;;;10.50;99.90;;;;;;4958953;28;90755;-29
2022/07/17 02:53:11;;;;;;;3.28;2.67;;;10.50;99.90;;;;;;4959669;28;90472;-34
2022/07/17 02:55:36;;;;;;;4.68;2.22;;;10.50;99.90;;;;;;4959376;28;87850;-31
2022/07/17 02:58:02;;;;;;;8.48;3.10;;;10.50;99.90;;;;;;4959201;28;89101;-29
2022/07/17 03:00:28;;;;;;;4.38;2.63;;;10.50;99.90;;;;;;4959965;28;90208;-34
2022/07/17 03:02:55;;;;;;;8.20;2.30;;;10.60;99.90;;;;;;4959362;28;91237;-31
2022/07/17 03:05:20;;;;;;;4.97;2.80;;;10.60;99.90;;;;;;4959775;28;89139;-33
2022/07/17 03:07:46;;;;;;;3.63;2.60;;;10.50;99.90;;;;;;4959535;28;90326;-32
2022/07/17 03:10:13;;;;;;;4.00;2.70;;;10.50;99.90;;;;;;4959043;28;90063;-34
2022/07/17 03:12:39;;;;;;;4.03;2.53;;;10.50;99.90;;;;;;4959093;28;89893;-35
2022/07/17 03:15:05;;;;;;;3.17;2.47;;;10.40;99.90;;;;;;4959767;28;88045;-32
2022/07/17 03:17:31;;;;;;;3.80;2.58;;;10.40;99.90;;;;;;4959335;28;90906;-30
2022/07/17 03:19:57;;;;;;;4.63;3.25;;;10.40;99.90;;;;;;4959169;28;89614;-33
2022/07/17 03:22:22;;;;;;;6.45;2.72;;;10.30;99.90;;;;;;4958376;28;89686;-34
2022/07/17 03:24:48;;;;;;;3.95;2.85;;;10.30;99.90;;;;;;4959585;28;89503;-35
2022/07/17 03:27:13;;;;;;;4.43;2.70;;;10.30;99.90;;;;;;4959486;28;90090;-32
2022/07/17 03:29:39;;;;;;;2.90;2.50;;;10.30;99.90;;;;;;4959312;28;90097;-32
2022/07/17 03:32:05;;;;;;;3.78;2.35;;;10.30;99.90;;;;;;4959494;28;90374;-30
2022/07/17 03:34:30;;;;;;;4.38;3.40;;;10.30;99.90;;;;;;4959456;28;88778;-33
2022/07/17 03:36:56;;;;;;;2.65;2.45;;;10.30;99.90;;;;;;4959132;28;90179;-32
2022/07/17 03:39:22;;;;;;;3.35;2.45;;;10.40;99.90;;;;;;4959137;28;91357;-32
2022/07/17 03:41:47;;;;;;;5.03;3.10;;;10.30;99.90;;;;;;4958830;28;91292;-32
2022/07/17 03:44:13;;;;;;;8.15;3.17;;;10.30;99.90;;;;;;4959277;28;89375;-31
2022/07/17 03:46:39;;;;;;;4.85;2.88;;;10.30;99.90;;;;;;4958734;28;90097;-31
2022/07/17 03:49:04;;;;;;;8.93;2.63;;;10.30;99.90;;;;;;4958778;28;89734;-33
2022/07/17 03:51:30;;;;;;;3.70;2.63;;;10.30;99.90;;;;;;4959058;28;89769;-29
2022/07/17 03:53:56;;;;;;;5.15;2.30;;;10.30;99.90;;;;;;4959597;28;89133;-33
2022/07/17 03:56:21;;;;;;;4.03;2.92;;;10.30;99.90;;;;;;4958441;28;90325;-30
2022/07/17 03:58:47;;;;;;;4.00;2.90;;;10.30;99.90;;;;;;4958813;28;89534;-30
2022/07/17 04:01:12;;;;;;;6.53;4.32;;;10.40;99.90;;;;;;4959292;28;90673;-32
2022/07/17 04:03:38;;;;;;;7.05;2.78;;;10.40;99.90;;;;;;4958248;28;89941;-31
2022/07/17 04:06:04;;;;;;;6.97;3.65;;;10.30;99.90;;;;;;4959347;28;90218;-32
2022/07/17 04:08:30;;;;;;;4.93;2.88;;;10.30;99.90;;;;;;4960843;28;89634;-33
2022/07/17 04:10:55;;;;;;;4.85;3.60;;;10.30;99.90;;;;;;4962133;28;89682;-35
2022/07/17 04:13:21;;;;;;;3.80;3.38;;;10.30;99.90;;;;;;4961640;28;89438;-31
2022/07/17 04:15:49;;;;;;;3.35;2.80;;;10.30;99.90;;;;;;4962392;28;90209;-36
2022/07/17 04:18:26;;;;;;;2.75;2.50;;;10.20;99.90;;;;;;4961929;28;90066;-34
2022/07/17 04:20:53;;;;;;;2.97;2.40;;;10.20;99.90;;;;;;4962561;28;89989;-31
2022/07/17 04:23:19;;;;;;;4.17;3.03;;;10.20;99.90;;;;;;4961823;28;88468;-30
2022/07/17 04:25:45;;;;;;;4.25;2.28;;;10.30;99.90;;;;;;4962122;28;90745;-34
2022/07/17 04:28:12;;;;;;;2.20;2.10;;;10.30;99.90;;;;;;4961696;28;90356;-29
2022/07/17 04:30:38;;;;;;;7.57;3.17;;;10.30;99.90;;;;;;4962073;28;90413;-32
2022/07/17 04:33:03;;;;;;;2.72;2.50;;;10.30;99.90;;;;;;4961271;28;89524;-35
2022/07/17 04:35:30;;;;;;;6.50;3.03;;;10.40;99.90;;;;;;4962103;28;91231;-31
2022/07/17 04:37:56;;;;;;;2.83;2.28;;;10.40;99.90;;;;;;4961288;28;90748;-28
2022/07/17 04:40:21;;;;;;;3.42;2.40;;;10.40;99.90;;;;;;4962042;28;90327;-31
2022/07/17 04:42:47;;;;;;;5.55;2.25;;;10.50;99.90;;;;;;4961719;28;88729;-30
2022/07/17 04:45:13;;;;;;;4.03;2.75;;;10.60;99.90;;;;;;4961028;28;90101;-33
2022/07/17 04:47:40;;;;;;;4.57;3.03;;;10.70;99.90;;;;;;4961822;28;89840;-31
2022/07/17 04:50:06;;;;;;;2.67;2.45;;;10.80;99.90;;;;;;4961130;28;89712;-30
2022/07/17 04:52:31;;;;;;;2.55;2.35;;;10.80;99.90;;;;;;4961928;28;90146;-32
2022/07/17 04:54:57;;;;;;;2.85;2.38;;;10.90;99.90;;;;;;4961366;28;90097;-29
2022/07/17 04:57:23;;;;;;;6.95;2.67;;;11.00;99.90;;;;;;4961294;28;89364;-31
2022/07/17 04:59:48;;;;;;;4.28;3.00;;;11.10;99.90;;;;;;4961646;28;89409;-31
2022/07/17 05:02:14;;;;;;;2.83;2.20;;;11.20;99.90;;;;;;4960495;28;88639;-31
2022/07/17 05:04:40;;;;;;;4.47;3.35;;;11.20;99.90;;;;;;4961767;28;90275;-31
2022/07/17 05:07:05;;;;;;;4.75;3.13;;;11.30;99.90;;;;;;4960783;28;89831;-32
2022/07/17 05:09:31;;;;;;;6.30;2.55;;;11.40;99.90;;;;;;4961079;28;89539;-31
2022/07/17 05:11:56;;;;;;;12.38;3.25;;;11.40;99.90;;;;;;4961069;28;90053;-32
2022/07/17 05:14:22;;;;;;;4.45;3.03;;;11.50;99.90;;;;;;4960721;28;90067;-29
2022/07/17 05:16:48;;;;;;;4.22;3.22;;;11.60;99.90;;;;;;4961402;28;90434;-31
2022/07/17 05:19:13;;;;;;;4.63;3.10;;;11.70;99.90;;;;;;4960322;28;90695;-30
2022/07/17 05:21:39;;;;;;;5.35;3.10;;;11.80;99.90;;;;;;4961220;28;89689;-31
2022/07/17 05:24:04;;;;;;;6.70;3.22;;;11.90;99.90;;;;;;4960252;28;90338;-33
2022/07/17 05:26:30;;;;;;;5.72;2.78;;;12.00;99.90;;;;;;4961522;28;89192;-30
2022/07/17 05:28:56;;;;;;;8.02;3.78;;;12.10;99.90;;;;;;4961144;28;89253;-32
2022/07/17 05:31:21;;;;;;;3.53;2.20;;;12.10;99.90;;;;;;4960642;28;89401;-36
2022/07/17 05:33:47;;;;;;;7.93;2.53;;;12.10;99.90;;;;;;4960915;28;90251;-29
2022/07/17 05:36:13;;;;;;;3.25;2.67;;;12.20;99.90;;;;;;4960109;28;89357;-30
2022/07/17 05:38:38;;;;;;;3.35;2.83;;;12.20;99.90;;;;;;4960989;28;89480;-32
2022/07/17 05:41:04;;;;;;;3.08;2.65;;;12.40;99.90;;;;;;4960733;28;90183;-34
2022/07/17 05:43:30;;;;;;;3.63;2.65;;;12.40;99.90;;;;;;4960142;28;90181;-31
2022/07/17 05:45:56;;;;;;;3.80;2.60;;;12.40;99.90;;;;;;4960418;28;89503;-32
2022/07/17 05:48:23;;;;;;;2.65;1.98;;;12.50;99.90;;;;;;4959763;28;90266;-30
2022/07/17 05:50:49;;;;;;;4.60;3.25;;;12.50;99.90;;;;;;4960678;28;87692;-30
2022/07/17 05:53:14;;;;;;;2.50;2.30;;;12.60;99.90;;;;;;4960491;28;90286;-31
2022/07/17 05:55:41;;;;;;;4.60;2.40;;;12.70;99.90;;;;;;4959892;28;89884;-35
2022/07/17 05:58:06;;;;;;;3.08;1.92;;;12.80;99.90;;;;;;4960469;28;89539;-33
2022/07/17 06:00:32;;;;;;;3.10;2.13;;;12.90;99.90;;;;;;4960755;28;88600;-34
2022/07/17 06:02:58;;;;;;;3.30;1.77;;;13.00;99.90;;;;;;4960313;28;90612;-31
2022/07/17 06:05:25;;;;;;;3.38;2.22;;;13.00;99.90;;;;;;4959885;28;90571;-32
2022/07/17 06:07:52;;;;;;;3.33;2.05;;;13.10;99.90;;;;;;4959533;28;90120;-30
2022/07/17 06:10:17;;;;;;;4.60;2.30;;;13.10;99.90;;;;;;4960655;28;90380;-31
2022/07/17 06:12:43;;;;;;;2.38;2.17;;;13.20;99.90;;;;;;4960632;28;90266;-30
2022/07/17 06:15:09;;;;;;;9.98;2.45;;;13.30;99.90;;;;;;4959934;28;88814;-30
2022/07/17 06:17:35;;;;;;;4.78;2.47;;;13.30;99.90;;;;;;4960307;28;89507;-30
2022/07/17 06:20:00;;;;;;;12.10;2.28;;;13.40;99.90;;;;;;4959718;28;88687;-31
2022/07/17 06:22:26;;;;;;;8.95;2.13;;;13.50;99.90;;;;;;4960663;28;90718;-32
2022/07/17 06:24:52;;;;;;;4.72;2.00;;;13.60;99.90;;;;;;4959924;28;90311;-33
2022/07/17 06:27:17;;;;;;;4.43;1.83;;;13.80;99.90;;;;;;4960895;28;89499;-33
2022/07/17 06:29:43;;;;;;;4.95;2.30;;;14.00;99.90;;;;;;4961034;28;89342;-32
2022/07/17 06:32:09;;;;;;;5.13;2.35;;;14.30;99.90;;;;;;4960944;28;90290;-31
2022/07/17 06:34:34;;;;;;;5.25;2.55;;;14.50;99.90;;;;;;4964854;28;89964;-31
2022/07/17 06:37:00;;;;;;;4.05;2.05;;;14.80;99.90;;;;;;4960898;28;89667;-34
2022/07/17 06:39:25;;;;;;;1.88;1.50;;;15.20;99.90;;;;;;4967018;28;88615;-30
2022/07/17 06:41:51;;;;;;;2.35;2.15;;;15.50;99.90;;;;;;4961365;28;91281;-32
2022/07/17 06:44:17;;;;;;;4.07;1.45;;;15.80;99.90;;;;;;4958710;28;90380;-32
2022/07/17 06:46:42;;;;;;;4.10;2.10;;;16.20;99.90;;;;;;4960328;28;90127;-32
2022/07/17 06:49:08;;;;;;;4.43;1.40;;;16.50;99.90;;;;;;4959805;28;88820;-33
2022/07/17 06:51:33;;;;;;;6.40;1.70;;;16.80;99.90;;;;;;4962058;28;90197;-34
2022/07/17 06:53:59;;;;;;;5.15;2.60;;;17.20;99.90;;;;;;4960641;28;90466;-34
2022/07/17 06:56:25;;;;;;;5.00;1.30;;;17.50;99.90;;;;;;4959118;28;90399;-33
2022/07/17 06:58:50;;;;;;;2.38;1.45;;;17.80;99.90;;;;;;4959247;28;89163;-33
2022/07/17 07:01:16;;;;;;;4.78;1.92;;;18.00;99.90;;;;;;4959762;28;90168;-32
2022/07/17 07:03:41;;;;;;;3.53;1.98;;;18.20;99.90;;;;;;4959650;28;90365;-32
2022/07/17 07:06:07;;;;;;;2.05;1.35;;;18.40;99.90;;;;;;4961773;28;89707;-30
2022/07/17 07:08:34;;;;;;;2.78;1.35;;;18.70;99.90;;;;;;4973257;28;87832;-30
2022/07/17 07:11:00;;;;;;;4.60;1.58;;;18.90;99.90;;;;;;4963473;28;90305;-33
2022/07/17 07:13:26;;;;;;;2.90;1.48;;;19.20;99.90;;;;;;4958896;28;89906;-34
2022/07/17 07:15:51;;;;;;;1.58;1.30;;;19.20;99.90;;;;;;4959533;28;89547;-33
2022/07/17 07:18:18;;;;;;;2.60;1.00;;;19.10;99.90;;;;;;4958284;28;89822;-31
2022/07/17 07:20:43;;;;;;;3.70;1.85;;;19.20;99.90;;;;;;4959793;28;89284;-34
2022/07/17 07:23:09;;;;;;;5.35;1.58;;;19.20;99.90;;;;;;4958717;28;91679;-32
2022/07/17 07:25:36;;;;;;;2.08;1.55;;;19.40;99.90;;;;;;4959765;28;89319;-31
2022/07/17 07:28:02;;;;;;;2.00;1.27;;;19.60;99.90;;;;;;4959731;28;89333;-32
2022/07/17 07:30:28;;;;;;;6.70;2.10;;;19.60;99.90;;;;;;4959248;28;90726;-33
2022/07/17 07:32:53;;;;;;;2.17;1.00;;;19.40;99.90;;;;;;4958939;28;89418;-35
2022/07/17 07:35:19;;;;;;;8.85;1.60;;;19.20;99.90;;;;;;4959644;28;89696;-33
2022/07/17 07:37:45;;;;;;;1.92;1.30;;;19.00;99.90;;;;;;4959161;28;89698;-34
2022/07/17 07:40:11;;;;;;;2.47;1.17;;;18.80;99.90;;;;;;4958672;28;90339;-30
2022/07/17 07:42:36;;;;;;;2.72;1.55;;;18.70;99.90;;;;;;4964609;28;91716;-34
2022/07/17 07:45:03;;;;;;;5.65;2.13;;;18.70;99.90;;;;;;4961936;28;90387;-34
2022/07/17 07:47:28;;;;;;;2.97;1.55;;;18.60;99.90;;;;;;4962778;28;89246;-32
2022/07/17 07:49:54;;;;;;;2.75;1.63;;;18.50;99.90;;;;;;4962932;28;90519;-35
2022/07/17 07:52:20;;;;;;;2.00;1.63;;;18.50;99.90;;;;;;4954006;28;88814;-32
2022/07/17 07:54:45;;;;;;;1.58;1.33;;;18.60;99.90;;;;;;4954863;28;89677;-33
2022/07/17 07:57:11;;;;;;;8.85;1.98;;;18.60;99.90;;;;;;4973516;28;88532;-31
2022/07/17 07:59:38;;;;;;;2.55;2.00;;;18.70;99.90;;;;;;4972997;28;90325;-31
2022/07/17 08:02:03;;;;;;;3.40;1.63;;;18.80;99.90;;;;;;4962818;28;89921;-33
2022/07/17 08:04:29;;;;;;;4.63;2.25;;;18.70;99.90;;;;;;4959015;28;89680;-32
2022/07/17 08:06:55;;;;;;;5.55;1.80;;;18.80;99.90;;;;;;4958748;28;89054;-30
2022/07/17 08:09:21;;;;;;;4.68;1.52;;;18.90;99.90;;;;;;4958784;28;90406;-31
2022/07/17 08:11:46;;;;;;;3.28;1.65;;;18.90;99.90;;;;;;4963782;28;90772;-30
2022/07/17 08:14:12;;;;;;;6.15;1.42;;;19.00;99.90;;;;;;4973248;28;89359;-31
2022/07/17 08:16:38;;;;;;;4.00;1.58;;;19.00;99.90;;;;;;4972148;28;88092;-31
2022/07/17 08:19:03;;;;;;;6.53;1.42;;;19.10;99.90;;;;;;4959438;28;90609;-32
2022/07/17 08:21:29;;;;;;;9.20;2.60;;;19.30;99.90;;;;;;4959015;28;89859;-32
2022/07/17 08:23:55;;;;;;;9.25;1.92;;;19.20;99.90;;;;;;4958931;28;90037;-34
2022/07/17 08:26:20;;;;;;;2.08;1.10;;;19.40;99.90;;;;;;4959085;28;87898;-32
2022/07/17 08:28:46;;;;;;;2.95;1.73;;;19.40;99.90;;;;;;4959046;28;90306;-32
2022/07/17 08:31:12;;;;;;;4.65;1.60;;;19.30;99.90;;;;;;4957815;28;91036;-32
2022/07/17 08:33:37;;;;;;;2.80;2.22;;;19.40;99.90;;;;;;4958799;28;90498;-32
2022/07/17 08:36:03;;;;;;;1.95;1.65;;;19.50;99.90;;;;;;4959015;28;89791;-30
2022/07/17 08:38:28;;;;;;;3.30;1.95;;;19.60;99.90;;;;;;4959161;28;90240;-33
2022/07/17 08:40:54;;;;;;;4.95;1.85;;;19.80;99.90;;;;;;4958890;28;89778;-32
2022/07/17 08:43:20;;;;;;;2.67;1.42;;;19.90;99.90;;;;;;4957125;28;89036;-34
2022/07/17 08:45:48;;;;;;;3.80;1.88;;;20.10;99.90;;;;;;4958980;28;89399;-32
2022/07/17 08:48:16;;;;;;;8.02;2.05;;;20.30;99.90;;;;;;4958751;28;90125;-34
2022/07/17 08:50:42;;;;;;;;;;;20.70;99.90;;;;;;4958920;28;91399;-32
2022/07/17 08:53:08;;;;;;;2.13;1.70;;;21.00;99.90;;;;;;4959719;28;89535;-34
2022/07/17 08:55:34;;;;;;;2.75;1.38;;;21.30;99.90;;;;;;4958187;28;89929;-34
2022/07/17 08:58:00;;;;;;;4.43;1.88;;;21.50;99.90;;;;;;4958657;28;90289;-34
2022/07/17 09:00:27;;;;;;;3.30;2.28;;;21.70;99.90;;;;;;4961124;28;89541;-32
2022/07/17 09:02:59;;;;;;;5.00;1.23;;;21.70;99.90;;;;;;4958649;28;88828;-33
2022/07/17 09:05:27;;;;;;;2.88;1.60;;;21.60;99.90;;;;;;4960249;28;88292;-31
2022/07/17 09:07:53;;;;;;;3.90;1.52;;;21.70;99.90;;;;;;4958436;28;90682;-32
2022/07/17 09:10:30;;;;;;;6.88;2.05;;;21.80;99.90;;;;;;4959458;28;88523;-34
2022/07/17 09:12:55;;;;;;;1.67;1.13;;;21.90;99.90;;;;;;4958398;28;89537;-35
2022/07/17 09:15:21;;;;;;;1.75;1.17;;;21.70;99.90;;;;;;4956044;28;88650;-34
2022/07/17 09:17:55;;;;;;;2.03;1.58;;;21.50;99.90;;;;;;4958386;28;90273;-34
2022/07/17 09:20:22;;;;;;;2.80;1.33;;;21.40;99.90;;;;;;4957507;28;90283;-31
2022/07/17 09:23:02;;;;;;;2.58;1.60;;;21.30;99.90;;;;;;4957440;28;90683;-32
2022/07/17 09:25:36;;;;;;;1.52;1.33;;;21.20;99.90;;;;;;4957549;28;88498;-33
2022/07/17 09:28:03;;;;;;;3.97;1.77;;;21.10;99.90;;;;;;4958354;28;90267;-32
2022/07/17 09:30:31;;;;;;;3.97;1.27;;;21.10;99.90;;;;;;4958322;28;89667;-33
2022/07/17 09:32:57;;;;;;;3.35;1.58;;;21.30;99.90;;;;;;4957533;28;89574;-31
2022/07/17 09:35:23;;;;;;;3.00;1.70;;;21.40;99.90;;;;;;4958157;28;88920;-32
2022/07/17 09:37:51;;;;;;;3.72;1.00;;;21.30;99.90;;;;;;4958066;28;90528;-33
2022/07/17 09:43:02;;;;;;;2.58;1.45;;;21.50;99.90;;;;;;4962598;28;89228;-33
2022/07/17 09:45:28;;;;;;;3.80;1.25;;;21.60;99.90;;;;;;4960872;28;89615;-31
2022/07/17 09:47:56;;;;;;;3.25;1.15;;;21.70;99.90;;;;;;4960455;28;90817;-33
2022/07/17 09:50:23;;;;;;;2.85;1.60;;;21.60;99.90;;;;;;4955969;28;89649;-31
2022/07/17 09:52:52;;;;;;;3.20;2.03;;;21.70;99.90;;;;;;4956747;28;89186;-32
2022/07/17 09:55:20;;;;;;;2.65;1.63;;;21.70;99.90;;;;;;4953848;28;88304;-33
2022/07/17 09:57:48;;;;;;;3.28;1.27;;;21.70;99.00;;;;;;4956306;28;90178;-33
2022/07/17 10:00:15;;;;;;;6.57;1.98;;;21.60;99.90;;;;;;4962706;28;89680;-33
2022/07/17 10:02:43;;;;;;;3.65;2.00;;;21.60;99.90;;;;;;4962010;28;89574;-31
2022/07/17 10:05:15;;;;;;;1.98;1.17;;;21.70;99.90;;;;;;4965823;28;88127;-33
2022/07/17 10:07:47;;;;;;;4.07;1.67;;;21.70;99.90;;;;;;4965575;28;90367;-33
2022/07/17 10:10:15;;;;;;;1.67;1.52;;;21.80;99.90;;;;;;4963715;28;90527;-33
2022/07/17 10:12:43;;;;;;;5.43;1.35;;;21.80;99.90;;;;;;4964101;28;90187;-33
2022/07/17 10:15:10;;;;;;;1.17;1.00;;;21.80;99.90;;;;;;4970430;28;88014;-34
2022/07/17 10:17:36;;;;;;;4.25;1.63;;;21.80;99.30;;;;;;4968593;28;90471;-33
2022/07/17 10:20:04;;;;;;;1.58;1.10;;;21.70;99.90;;;;;;4968615;28;89520;-32
2022/07/17 10:22:46;;;;;;;1.92;1.55;;;21.70;99.90;;;;;;4957731;28;89491;-32
2022/07/17 10:25:17;;;;;;;3.60;1.80;;;21.60;99.90;;;;;;4957656;28;87897;-31
2022/07/17 10:27:51;;;;;;;2.75;1.60;;;21.70;99.90;;;;;;4957696;28;88890;-33
2022/07/17 10:30:24;;;;;;;5.45;1.65;;;21.60;99.90;;;;;;4956511;28;89466;-33
2022/07/17 10:32:56;;;;;;;4.72;2.03;;;21.60;99.90;;;;;;4956712;28;89560;-33
2022/07/17 10:35:22;;;;;;;2.40;1.40;;;21.80;99.90;;;;;;4956827;28;89241;-32
2022/07/17 10:37:48;;;;;;;2.65;1.65;;;21.80;99.90;;;;;;4957466;28;90329;-33
2022/07/17 10:40:19;;;;;;;7.32;1.40;;;21.80;97.00;;;;;;4956670;28;89588;-33
2022/07/17 10:42:58;;;;;;;2.92;1.42;;;21.70;99.90;;;;;;4955975;28;88422;-32
2022/07/17 10:45:37;;;;;;;2.97;1.40;;;21.60;99.90;;;;;;4962327;28;88029;-32
2022/07/17 10:48:05;;;;;;;5.85;1.85;;;21.70;99.90;;;;;;4964835;28;90197;-31
2022/07/17 10:50:37;;;;;;;2.30;1.33;;;21.80;99.90;;;;;;4963905;28;89384;-31
2022/07/17 10:53:24;;;;;;;5.05;1.83;;;21.70;99.90;;;;;;4961961;28;90585;-32
2022/07/17 10:55:55;;;;;;;5.55;2.28;;;21.70;99.90;;;;;;4961846;28;88996;-33
2022/07/17 10:58:27;;;;;;;3.88;2.25;;;21.70;99.90;;;;;;4958422;28;90368;-32
2022/07/17 11:01:12;;;;;;;1.70;1.52;;;21.80;99.90;;;;;;4958618;28;90787;-34
2022/07/17 11:03:44;;;;;;;1.45;1.35;;;21.80;99.90;;;;;;4957692;28;91017;-32
2022/07/17 11:06:27;;;;;;;2.45;1.45;;;21.80;99.90;;;;;;4964431;28;88535;-31
2022/07/17 11:08:55;;;;;;;4.63;1.77;;;21.90;99.90;;;;;;4971009;28;91051;-32
2022/07/17 11:11:23;;;;;;;2.28;1.50;;;22.00;99.90;;;;;;4970366;28;89705;-34
2022/07/17 11:13:49;;;;;;;1.83;1.60;;;22.10;98.50;;;;;;4967354;28;89489;-33
2022/07/17 11:16:29;;;;;;;4.85;2.13;;;21.90;99.90;;;;;;4958461;28;90672;-33
2022/07/17 11:18:55;;;;;;;4.82;1.95;;;21.90;99.90;;;;;;4961946;28;88856;-31
2022/07/17 11:21:21;;;;;;;6.35;1.98;;;21.90;99.90;;;;;;4963396;28;89759;-36
2022/07/17 11:23:52;;;;;;;1.65;1.55;;;21.80;99.90;;;;;;4962216;28;88860;-34
2022/07/17 11:26:19;;;;;;;1.98;1.83;;;21.80;99.90;;;;;;4962353;28;90040;-33
2022/07/17 11:28:44;;;;;;;1.65;1.30;;;21.70;99.90;;;;;;4960558;28;90340;-32
2022/07/17 11:31:27;;;;;;;3.33;1.45;;;21.90;99.90;;;;;;4960922;28;90313;-32
2022/07/17 11:33:55;;;;;;;7.72;2.30;;;21.90;99.90;;;;;;4959761;28;90017;-34
2022/07/17 11:36:32;;;;;;;1.50;1.42;;;21.90;99.90;;;;;;4960386;28;88883;-35
2022/07/17 11:39:00;;;;;;;7.13;1.75;;;21.90;99.90;;;;;;4960895;28;90628;-35
2022/07/17 11:41:35;;;;;;;2.38;1.45;;;21.90;99.90;;;;;;4960810;28;89802;-33
2022/07/17 11:44:02;;;;;;;1.92;1.77;;;22.00;99.90;;;;;;4959582;28;89793;-31
2022/07/17 11:46:30;;;;;;;3.40;1.63;;;22.00;99.90;;;;;;4960723;28;88909;-35
2022/07/17 11:48:55;;;;;;;3.20;1.70;;;21.90;99.90;;;;;;4960172;28;90322;-34
2022/07/17 11:51:21;;;;;;;3.92;1.92;;;21.90;99.90;;;;;;4959605;28;92275;-34
2022/07/17 11:53:49;;;;;;;3.45;1.85;;;21.80;99.90;;;;;;4959966;28;90681;-32
2022/07/17 11:56:21;;;;;;;;;;;21.80;99.90;;;;;;4960682;28;89428;-34
2022/07/17 11:58:47;;;;;;;3.45;2.33;;;21.80;99.90;;;;;;4961124;28;90240;-34
2022/07/17 12:01:14;;;;;;;4.60;1.73;;;21.90;99.90;;;;;;4958821;28;90397;-33
2022/07/17 12:03:40;;;;;;;2.20;1.60;;;22.00;99.90;;;;;;4959672;28;90605;-33
2022/07/17 12:06:06;;;;;;;3.03;1.73;;;22.10;99.90;;;;;;4960299;28;88565;-31
2022/07/17 12:08:33;;;;;;;3.08;1.70;;;22.20;99.90;;;;;;4990773;22;89939;-32
2022/07/17 12:11:09;;;;;;;2.53;1.92;;;22.20;99.90;;;;;;4940507;28;90322;-35
2022/07/17 12:13:46;;;;;;;2.55;1.50;;;22.10;99.90;;;;;;4940585;28;89190;-31
2022/07/17 12:16:38;;;;;;;1.92;1.50;;;22.10;99.90;;;;;;4940190;28;89831;-32
2022/07/17 12:19:15;;;;;;;3.38;1.83;;;21.90;99.90;;;;;;4938028;28;91052;-32
2022/07/17 12:22:04;;;;;;;4.25;1.77;;;21.80;99.90;;;;;;4940301;28;89578;-34
2022/07/17 12:24:38;;;;;;;4.57;1.77;;;21.90;99.90;;;;;;4939562;28;89552;-35
2022/07/17 12:27:06;;;;;;;4.38;1.20;;;22.00;99.90;;;;;;4939902;28;88939;-31
2022/07/17 12:29:32;;;;;;;3.33;1.48;;;22.00;99.90;;;;;;4943079;28;92463;-33
2022/07/17 12:32:10;;;;;;;5.03;1.65;;;21.90;99.90;;;;;;4944789;28;90249;-34
2022/07/17 12:34:44;;;;;;;5.88;1.63;;;21.90;99.90;;;;;;4941484;28;89448;-34
2022/07/17 12:37:14;;;;;;;2.67;1.80;;;21.90;99.90;;;;;;4944993;28;88058;-33
2022/07/17 12:39:39;;;;;;;5.70;2.58;;;21.90;99.90;;;;;;4952449;28;90350;-36
2022/07/17 12:42:05;;;;;;;5.07;1.83;;;21.90;99.90;;;;;;4952949;28;90389;-32
2022/07/17 12:44:31;;;;;;;3.60;2.22;;;22.00;99.90;;;;;;4947008;28;89875;-32
2022/07/17 12:46:57;;;;;;;4.35;1.75;;;22.00;99.90;;;;;;4943906;28;88027;-33
2022/07/17 12:49:25;;;;;;;1.55;1.42;;;22.10;99.90;;;;;;4943811;28;90277;-33